sensor_id;sensor_type;location;lat;lon;timestamp;temperature;humidity
30336;DHT22;17142;47.990;7.846;2023-05-10T04:49:53;12.00;99.90
30336;DHT22;17142;47.990;7.846;2023-05-10T04:52:18;12.00;99.90
30336;DHT22;17142;47.990;7.846;2023-05-10T04:54:44;12.00;99.90
30336;DHT22;17142;47.990;7.846;2023-05-10T04:57:12;12.00;99.90
30336;DHT22;17142;47.990;7.846;2023-05-10T04:59:38;12.00;99.90
30336;DHT22;17142;47.990;7.846;2023-05-10T05:02:04;12.00;99.90
30336;DHT22;17142;47.990;7.846;2023-05-10T05:04:30;12.00;99.90
30336;DHT22;17142;47.990;7.846;2023-05-10T05:06:58;12.00;99.90
30336;DHT22;17142;47.990;7.846;2023-05-10T05:09:26;12.00;99.90
30336;DHT22;17142;47.990;7.846;2023-05-10T05:11:51;12.10;99.90
30336;DHT22;17142;47.990;7.846;2023-05-10T05:14:19;12.10;99.90
30336;DHT22;17142;47.990;7.846;2023-05-10T05:16:53;12.20;99.90
30336;DHT22;17142;47.990;7.846;2023-05-10T05:19:18;12.20;99.90
30336;DHT22;17142;47.990;7.846;2023-05-10T05:21:46;12.30;99.90
30336;DHT22;17142;47.990;7.846;2023-05-10T05:24:12;12.30;99.90
30336;DHT22;17142;47.990;7.846;2023-05-10T05:26:38;12.30;99.90
30336;DHT22;17142;47.990;7.846;2023-05-10T05:29:04;12.40;99.90
30336;DHT22;17142;47.990;7.846;2023-05-10T05:31:29;12.40;99.90
30336;DHT22;17142;47.990;7.846;2023-05-10T05:33:55;12.40;99.90
30336;DHT22;17142;47.990;7.846;2023-05-10T05:36:21;12.40;99.90
30336;DHT22;17142;47.990;7.846;2023-05-10T05:38:47;12.40;99.90
30336;DHT22;17142;47.990;7.846;2023-05-10T05:41:15;12.40;99.90
30336;DHT22;17142;47.990;7.846;2023-05-10T05:43:40;12.50;99.90
30336;DHT22;17142;47.990;7.846;2023-05-10T05:46:06;12.50;99.90
30336;DHT22;17142;47.990;7.846;2023-05-10T05:48:34;12.50;99.90
30336;DHT22;17142;47.990;7.846;2023-05-10T05:50:59;12.50;99.90
30336;DHT22;17142;47.990;7.846;2023-05-10T05:53:25;12.50;99.90
30336;DHT22;17142;47.990;7.846;2023-05-10T05:55:55;12.50;99.90
30336;DHT22;17142;47.990;7.846;2023-05-10T05:58:22;12.50;99.90
30336;DHT22;17142;47.990;7.846;2023-05-10T06:00:48;12.40;99.90
30336;DHT22;17142;47.990;7.846;2023-05-10T06:03:13;12.30;99.90
30336;DHT22;17142;47.990;7.846;2023-05-10T06:05:39;12.30;99.90
30336;DHT22;17142;47.990;7.846;2023-05-10T06:08:05;12.30;99.90
30336;DHT22;17142;47.990;7.846;2023-05-10T06:10:30;12.20;99.90
30336;DHT22;17142;47.990;7.846;2023-05-10T06:12:56;12.20;99.90
30336;DHT22;17142;47.990;7.846;2023-05-10T06:15:22;12.20;99.90
30336;DHT22;17142;47.990;7.846;2023-05-10T06:17:47;12.20;99.90
30336;DHT22;17142;47.990;7.846;2023-05-10T06:20:15;12.20;99.90
30336;DHT22;17142;47.990;7.846;2023-05-10T06:22:41;12.30;99.90
30336;DHT22;17142;47.990;7.846;2023-05-10T06:25:07;12.30;99.90
30336;DHT22;17142;47.990;7.846;2023-05-10T06:27:33;12.30;99.90
30336;DHT22;17142;47.990;7.846;2023-05-10T06:30:01;12.30;99.90
30336;DHT22;17142;47.990;7.846;2023-05-10T06:32:28;12.30;99.90
30336;DHT22;17142;47.990;7.846;2023-05-10T06:34:54;12.40;99.90
30336;DHT22;17142;47.990;7.846;2023-05-10T06:37:21;12.40;99.90
30336;DHT22;17142;47.990;7.846;2023-05-10T06:39:47;12.40;99.90
30336;DHT22;17142;47.990;7.846;2023-05-10T06:42:15;12.40;99.90
30336;DHT22;17142;47.990;7.846;2023-05-10T06:44:43;12.50;99.90
30336;DHT22;17142;47.990;7.846;2023-05-10T06:47:09;12.60;99.90
30336;DHT22;17142;47.990;7.846;2023-05-10T06:49:34;12.70;99.90
30336;DHT22;17142;47.990;7.846;2023-05-10T06:52:02;12.90;99.90
30336;DHT22;17142;47.990;7.846;2023-05-10T06:54:28;13.20;99.90
30336;DHT22;17142;47.990;7.846;2023-05-10T06:56:54;13.30;99.90
30336;DHT22;17142;47.990;7.846;2023-05-10T06:59:19;13.20;99.90
30336;DHT22;17142;47.990;7.846;2023-05-10T07:01:47;13.20;99.90
30336;DHT22;17142;47.990;7.846;2023-05-10T07:04:15;13.10;99.90
30336;DHT22;17142;47.990;7.846;2023-05-10T07:06:43;13.30;99.90
30336;DHT22;17142;47.990;7.846;2023-05-10T07:09:10;13.40;99.90
30336;DHT22;17142;47.990;7.846;2023-05-10T07:11:35;13.60;99.90
30336;DHT22;17142;47.990;7.846;2023-05-10T07:14:02;13.80;99.90
30336;DHT22;17142;47.990;7.846;2023-05-10T07:16:28;14.10;99.90
30336;DHT22;17142;47.990;7.846;2023-05-10T07:18:56;14.40;99.90
30336;DHT22;17142;47.990;7.846;2023-05-10T07:21:21;14.80;99.90
30336;DHT22;17142;47.990;7.846;2023-05-10T07:23:49;14.90;99.90
30336;DHT22;17142;47.990;7.846;2023-05-10T07:26:15;14.80;99.90
30336;DHT22;17142;47.990;7.846;2023-05-10T07:28:41;14.70;99.90
30336;DHT22;17142;47.990;7.846;2023-05-10T07:31:07;14.50;99.90
30336;DHT22;17142;47.990;7.846;2023-05-10T07:33:32;14.30;99.90
30336;DHT22;17142;47.990;7.846;2023-05-10T07:35:58;14.20;99.90
30336;DHT22;17142;47.990;7.846;2023-05-10T07:38:24;14.10;99.90
30336;DHT22;17142;47.990;7.846;2023-05-10T07:40:49;14.20;99.90
30336;DHT22;17142;47.990;7.846;2023-05-10T07:43:15;14.30;99.90
30336;DHT22;17142;47.990;7.846;2023-05-10T07:45:41;14.30;99.90
30336;DHT22;17142;47.990;7.846;2023-05-10T07:48:09;14.50;99.90
30336;DHT22;17142;47.990;7.846;2023-05-10T07:50:37;14.80;99.90
30336;DHT22;17142;47.990;7.846;2023-05-10T07:53:03;15.10;99.90
30336;DHT22;17142;47.990;7.846;2023-05-10T07:55:28;15.50;99.90
30336;DHT22;17142;47.990;7.846;2023-05-10T07:57:56;16.10;99.90
30336;DHT22;17142;47.990;7.846;2023-05-10T08:00:28;16.50;99.90
30336;DHT22;17142;47.990;7.846;2023-05-10T08:02:54;16.60;99.90
30336;DHT22;17142;47.990;7.846;2023-05-10T08:05:19;16.50;99.90
30336;DHT22;17142;47.990;7.846;2023-05-10T08:07:45;16.30;99.90
30336;DHT22;17142;47.990;7.846;2023-05-10T08:10:10;16.10;99.90
30336;DHT22;17142;47.990;7.846;2023-05-10T08:12:37;16.10;99.90
30336;DHT22;17142;47.990;7.846;2023-05-10T08:15:03;16.50;99.90
30336;DHT22;17142;47.990;7.846;2023-05-10T08:17:29;16.90;99.90
30336;DHT22;17142;47.990;7.846;2023-05-10T08:19:54;17.10;99.90
30336;DHT22;17142;47.990;7.846;2023-05-10T08:22:20;17.30;99.90
30336;DHT22;17142;47.990;7.846;2023-05-10T08:24:46;17.60;99.90
30336;DHT22;17142;47.990;7.846;2023-05-10T08:27:13;17.90;99.90
30336;DHT22;17142;47.990;7.846;2023-05-10T08:29:41;18.00;99.90
30336;DHT22;17142;47.990;7.846;2023-05-10T08:32:09;18.10;99.90
30336;DHT22;17142;47.990;7.846;2023-05-10T08:34:35;18.20;99.90
30336;DHT22;17142;47.990;7.846;2023-05-10T08:37:02;18.40;99.90
30336;DHT22;17142;47.990;7.846;2023-05-10T08:39:28;18.30;99.90
30336;DHT22;17142;47.990;7.846;2023-05-10T08:41:55;18.30;99.90
30336;DHT22;17142;47.990;7.846;2023-05-10T08:44:26;18.40;99.90
30336;DHT22;17142;47.990;7.846;2023-05-10T08:46:54;18.30;99.90
30336;DHT22;17142;47.990;7.846;2023-05-10T08:49:24;18.40;99.90
30336;DHT22;17142;47.990;7.846;2023-05-10T08:51:54;18.50;99.90
30336;DHT22;17142;47.990;7.846;2023-05-10T08:54:21;18.50;99.90
30336;DHT22;17142;47.990;7.846;2023-05-10T08:56:47;18.50;99.90
30336;DHT22;17142;47.990;7.846;2023-05-10T08:59:17;18.70;99.90
30336;DHT22;17142;47.990;7.846;2023-05-10T09:01:45;18.90;99.90
30336;DHT22;17142;47.990;7.846;2023-05-10T09:04:14;19.10;99.90
30336;DHT22;17142;47.990;7.846;2023-05-10T09:06:39;19.20;99.90
30336;DHT22;17142;47.990;7.846;2023-05-10T09:09:05;19.30;99.90
30336;DHT22;17142;47.990;7.846;2023-05-10T09:11:32;19.30;99.90
30336;DHT22;17142;47.990;7.846;2023-05-10T09:13:57;19.00;99.90
30336;DHT22;17142;47.990;7.846;2023-05-10T09:16:23;18.90;99.90
30336;DHT22;17142;47.990;7.846;2023-05-10T09:18:49;18.60;99.90
30336;DHT22;17142;47.990;7.846;2023-05-10T09:21:15;18.10;99.90
30336;DHT22;17142;47.990;7.846;2023-05-10T09:23:44;17.80;99.90
30336;DHT22;17142;47.990;7.846;2023-05-10T09:26:12;17.90;99.90
30336;DHT22;17142;47.990;7.846;2023-05-10T09:28:55;17.90;99.90
30336;DHT22;17142;47.990;7.846;2023-05-10T09:31:24;18.10;99.90
30336;DHT22;17142;47.990;7.846;2023-05-10T09:33:53;18.20;99.90
30336;DHT22;17142;47.990;7.846;2023-05-10T09:36:18;18.50;99.90
30336;DHT22;17142;47.990;7.846;2023-05-10T09:38:49;18.80;99.90
30336;DHT22;17142;47.990;7.846;2023-05-10T09:41:22;19.10;99.90
30336;DHT22;17142;47.990;7.846;2023-05-10T09:43:48;19.30;99.90
30336;DHT22;17142;47.990;7.846;2023-05-10T09:46:15;19.50;99.10
30336;DHT22;17142;47.990;7.846;2023-05-10T09:48:45;19.70;98.60
30336;DHT22;17142;47.990;7.846;2023-05-10T09:51:22;20.00;97.00
30336;DHT22;17142;47.990;7.846;2023-05-10T09:53:49;20.30;95.70
30336;DHT22;17142;47.990;7.846;2023-05-10T09:56:36;20.50;94.00
30336;DHT22;17142;47.990;7.846;2023-05-10T09:59:05;20.80;93.30
30336;DHT22;17142;47.990;7.846;2023-05-10T10:01:34;21.20;90.70
30336;DHT22;17142;47.990;7.846;2023-05-10T10:04:03;21.30;88.90
30336;DHT22;17142;47.990;7.846;2023-05-10T10:06:34;21.40;84.00
30336;DHT22;17142;47.990;7.846;2023-05-10T10:09:00;21.40;83.20
30336;DHT22;17142;47.990;7.846;2023-05-10T10:11:26;21.40;81.20
30336;DHT22;17142;47.990;7.846;2023-05-10T10:13:54;21.40;81.30
30336;DHT22;17142;47.990;7.846;2023-05-10T10:16:20;21.30;81.00
30336;DHT22;17142;47.990;7.846;2023-05-10T10:18:47;21.20;80.20
30336;DHT22;17142;47.990;7.846;2023-05-10T10:21:14;21.30;77.20
30336;DHT22;17142;47.990;7.846;2023-05-10T10:23:40;21.30;75.40
30336;DHT22;17142;47.990;7.846;2023-05-10T10:26:10;21.40;76.60
30336;DHT22;17142;47.990;7.846;2023-05-10T10:34:21;20.70;74.60
30336;DHT22;17142;47.990;7.846;2023-05-10T10:36:50;20.70;76.10
30336;DHT22;17142;47.990;7.846;2023-05-10T10:39:16;20.80;70.20
30336;DHT22;17142;47.990;7.846;2023-05-10T10:49:50;20.70;69.60
30336;DHT22;17142;47.990;7.846;2023-05-10T10:52:28;20.70;69.00
30336;DHT22;17142;47.990;7.846;2023-05-10T10:55:05;20.70;69.20
30336;DHT22;17142;47.990;7.846;2023-05-10T11:00:28;20.50;69.40
30336;DHT22;17142;47.990;7.846;2023-05-10T11:08:11;20.70;69.90
30336;DHT22;17142;47.990;7.846;2023-05-10T11:10:40;20.90;71.30
30336;DHT22;17142;47.990;7.846;2023-05-10T11:13:08;21.00;69.60
30336;DHT22;17142;47.990;7.846;2023-05-10T11:15:39;20.90;69.00
30336;DHT22;17142;47.990;7.846;2023-05-10T11:18:26;20.80;70.20
30336;DHT22;17142;47.990;7.846;2023-05-10T11:21:09;20.60;70.20
30336;DHT22;17142;47.990;7.846;2023-05-10T11:26:15;20.70;71.10
30336;DHT22;17142;47.990;7.846;2023-05-10T11:28:48;20.70;70.20
30336;DHT22;17142;47.990;7.846;2023-05-10T11:31:19;20.40;68.70
30336;DHT22;17142;47.990;7.846;2023-05-10T11:33:50;20.00;69.00
30336;DHT22;17142;47.990;7.846;2023-05-10T11:38:42;19.50;68.80
30336;DHT22;17142;47.990;7.846;2023-05-10T11:41:09;19.20;68.60
30336;DHT22;17142;47.990;7.846;2023-05-10T11:43:35;19.00;70.90
30336;DHT22;17142;47.990;7.846;2023-05-10T11:46:04;18.80;71.90
30336;DHT22;17142;47.990;7.846;2023-05-10T11:48:31;18.70;72.30
30336;DHT22;17142;47.990;7.846;2023-05-10T11:50:56;18.80;74.00
30336;DHT22;17142;47.990;7.846;2023-05-10T11:53:25;18.90;75.00
30336;DHT22;17142;47.990;7.846;2023-05-10T11:55:51;19.00;73.20
30336;DHT22;17142;47.990;7.846;2023-05-10T11:58:18;18.90;73.10
30336;DHT22;17142;47.990;7.846;2023-05-10T12:00:48;18.80;74.00
30336;DHT22;17142;47.990;7.846;2023-05-10T12:03:16;18.60;74.50
30336;DHT22;17142;47.990;7.846;2023-05-10T12:05:42;18.50;75.70
30336;DHT22;17142;47.990;7.846;2023-05-10T12:08:15;18.50;76.80
30336;DHT22;17142;47.990;7.846;2023-05-10T12:10:41;18.60;76.10
30336;DHT22;17142;47.990;7.846;2023-05-10T12:13:13;18.80;74.50
30336;DHT22;17142;47.990;7.846;2023-05-10T12:15:39;19.00;70.70
30336;DHT22;17142;47.990;7.846;2023-05-10T12:18:05;19.00;70.20
30336;DHT22;17142;47.990;7.846;2023-05-10T12:20:31;19.00;69.10
30336;DHT22;17142;47.990;7.846;2023-05-10T12:22:58;19.00;67.50
30336;DHT22;17142;47.990;7.846;2023-05-10T12:25:33;18.80;67.40
30336;DHT22;17142;47.990;7.846;2023-05-10T12:27:59;18.60;67.20
30336;DHT22;17142;47.990;7.846;2023-05-10T12:30:29;18.40;69.60
30336;DHT22;17142;47.990;7.846;2023-05-10T12:33:15;18.20;71.70
30336;DHT22;17142;47.990;7.846;2023-05-10T12:35:52;17.90;73.30
30336;DHT22;17142;47.990;7.846;2023-05-10T12:38:40;17.80;73.60
30336;DHT22;17142;47.990;7.846;2023-05-10T12:41:16;17.70;76.80
30336;DHT22;17142;47.990;7.846;2023-05-10T12:43:42;17.40;81.00
30336;DHT22;17142;47.990;7.846;2023-05-10T12:46:15;17.00;88.10
30336;DHT22;17142;47.990;7.846;2023-05-10T12:48:42;16.50;91.50
30336;DHT22;17142;47.990;7.846;2023-05-10T12:51:11;16.10;94.60
30336;DHT22;17142;47.990;7.846;2023-05-10T12:53:42;15.80;97.30
30336;DHT22;17142;47.990;7.846;2023-05-10T12:56:11;15.80;99.90
30336;DHT22;17142;47.990;7.846;2023-05-10T12:58:38;15.80;99.90
30336;DHT22;17142;47.990;7.846;2023-05-10T13:01:05;16.10;99.90
30336;DHT22;17142;47.990;7.846;2023-05-10T13:03:33;16.40;99.90
30336;DHT22;17142;47.990;7.846;2023-05-10T13:05:58;16.70;98.90
30336;DHT22;17142;47.990;7.846;2023-05-10T13:08:24;17.00;96.90
30336;DHT22;17142;47.990;7.846;2023-05-10T13:10:50;17.30;93.60
30336;DHT22;17142;47.990;7.846;2023-05-10T13:13:16;17.70;92.10
30336;DHT22;17142;47.990;7.846;2023-05-10T13:15:41;18.00;91.50
30336;DHT22;17142;47.990;7.846;2023-05-10T13:18:07;18.20;90.80
30336;DHT22;17142;47.990;7.846;2023-05-10T13:20:33;18.40;90.50
30336;DHT22;17142;47.990;7.846;2023-05-10T13:23:01;18.50;90.00
30336;DHT22;17142;47.990;7.846;2023-05-10T13:25:29;18.50;88.40
30336;DHT22;17142;47.990;7.846;2023-05-10T13:27:55;18.40;89.00
30336;DHT22;17142;47.990;7.846;2023-05-10T13:30:20;18.20;90.70
30336;DHT22;17142;47.990;7.846;2023-05-10T13:32:46;17.90;92.80
30336;DHT22;17142;47.990;7.846;2023-05-10T13:35:12;17.70;94.20
30336;DHT22;17142;47.990;7.846;2023-05-10T13:37:37;17.70;95.00
30336;DHT22;17142;47.990;7.846;2023-05-10T13:40:06;17.90;95.90
30336;DHT22;17142;47.990;7.846;2023-05-10T13:42:34;18.10;95.30
30336;DHT22;17142;47.990;7.846;2023-05-10T13:45:03;18.10;93.70
30336;DHT22;17142;47.990;7.846;2023-05-10T13:47:31;18.10;93.50
30336;DHT22;17142;47.990;7.846;2023-05-10T13:49:58;18.10;93.10
30336;DHT22;17142;47.990;7.846;2023-05-10T13:52:24;18.30;92.10
30336;DHT22;17142;47.990;7.846;2023-05-10T13:54:50;18.50;90.90
30336;DHT22;17142;47.990;7.846;2023-05-10T13:57:18;18.80;90.30
30336;DHT22;17142;47.990;7.846;2023-05-10T13:59:43;18.80;87.90
30336;DHT22;17142;47.990;7.846;2023-05-10T14:02:11;19.00;86.60
30336;DHT22;17142;47.990;7.846;2023-05-10T14:04:38;19.40;82.70
30336;DHT22;17142;47.990;7.846;2023-05-10T14:07:04;19.70;80.00
30336;DHT22;17142;47.990;7.846;2023-05-10T14:09:32;19.90;79.20
30336;DHT22;17142;47.990;7.846;2023-05-10T14:12:00;20.10;76.30
30336;DHT22;17142;47.990;7.846;2023-05-10T14:14:25;20.30;75.00
30336;DHT22;17142;47.990;7.846;2023-05-10T14:16:51;20.30;75.90
30336;DHT22;17142;47.990;7.846;2023-05-10T14:19:17;20.10;75.90
30336;DHT22;17142;47.990;7.846;2023-05-10T14:21:45;20.30;77.60
30336;DHT22;17142;47.990;7.846;2023-05-10T14:24:11;20.40;76.80
30336;DHT22;17142;47.990;7.846;2023-05-10T14:26:36;20.40;77.00
30336;DHT22;17142;47.990;7.846;2023-05-10T14:29:02;20.40;77.00
30336;DHT22;17142;47.990;7.846;2023-05-10T14:31:28;20.30;77.50
30336;DHT22;17142;47.990;7.846;2023-05-10T14:33:57;20.10;77.80
30336;DHT22;17142;47.990;7.846;2023-05-10T14:36:25;20.00;78.40
30336;DHT22;17142;47.990;7.846;2023-05-10T14:38:51;19.80;78.30
30336;DHT22;17142;47.990;7.846;2023-05-10T14:41:19;19.60;78.60
30336;DHT22;17142;47.990;7.846;2023-05-10T14:43:45;19.50;79.20
30336;DHT22;17142;47.990;7.846;2023-05-10T14:46:11;19.30;78.10
30336;DHT22;17142;47.990;7.846;2023-05-10T14:48:36;19.30;79.20
30336;DHT22;17142;47.990;7.846;2023-05-10T14:51:02;19.40;77.70
30336;DHT22;17142;47.990;7.846;2023-05-10T14:53:28;19.40;77.00
30336;DHT22;17142;47.990;7.846;2023-05-10T14:55:54;19.50;75.90
30336;DHT22;17142;47.990;7.846;2023-05-10T14:58:20;19.60;75.50
30336;DHT22;17142;47.990;7.846;2023-05-10T15:00:45;19.70;75.90
30336;DHT22;17142;47.990;7.846;2023-05-10T15:03:14;19.90;75.30
30336;DHT22;17142;47.990;7.846;2023-05-10T15:05:42;20.10;75.60
30336;DHT22;17142;47.990;7.846;2023-05-10T15:08:07;20.40;75.80
30336;DHT22;17142;47.990;7.846;2023-05-10T15:10:34;20.60;74.80
30336;DHT22;17142;47.990;7.846;2023-05-10T15:13:04;20.60;74.50
30336;DHT22;17142;47.990;7.846;2023-05-10T15:15:30;20.40;74.40
30336;DHT22;17142;47.990;7.846;2023-05-10T15:17:56;20.00;75.70
30336;DHT22;17142;47.990;7.846;2023-05-10T15:20:21;19.90;77.40
30336;DHT22;17142;47.990;7.846;2023-05-10T15:22:47;19.70;76.40
30336;DHT22;17142;47.990;7.846;2023-05-10T15:25:15;19.50;77.60
30336;DHT22;17142;47.990;7.846;2023-05-10T15:27:43;19.40;78.80
30336;DHT22;17142;47.990;7.846;2023-05-10T15:30:14;19.40;78.50
30336;DHT22;17142;47.990;7.846;2023-05-10T15:32:40;19.40;79.90
30336;DHT22;17142;47.990;7.846;2023-05-10T15:35:08;19.50;81.30
30336;DHT22;17142;47.990;7.846;2023-05-10T15:37:35;19.60;80.70
30336;DHT22;17142;47.990;7.846;2023-05-10T15:40:01;19.80;79.40
30336;DHT22;17142;47.990;7.846;2023-05-10T15:42:29;20.00;76.60
30336;DHT22;17142;47.990;7.846;2023-05-10T15:44:58;20.20;75.60
30336;DHT22;17142;47.990;7.846;2023-05-10T15:47:27;20.10;74.80
30336;DHT22;17142;47.990;7.846;2023-05-10T15:49:55;20.10;74.60
30336;DHT22;17142;47.990;7.846;2023-05-10T15:52:21;20.10;74.20
30336;DHT22;17142;47.990;7.846;2023-05-10T15:54:47;20.00;74.40
30336;DHT22;17142;47.990;7.846;2023-05-10T15:57:13;19.80;74.20
30336;DHT22;17142;47.990;7.846;2023-05-10T15:59:41;19.70;75.50
30336;DHT22;17142;47.990;7.846;2023-05-10T16:02:10;19.70;74.90
30336;DHT22;17142;47.990;7.846;2023-05-10T16:04:38;19.60;74.50
30336;DHT22;17142;47.990;7.846;2023-05-10T16:07:06;19.40;73.90
30336;DHT22;17142;47.990;7.846;2023-05-10T16:09:32;19.30;75.20
30336;DHT22;17142;47.990;7.846;2023-05-10T16:11:59;19.10;75.90
30336;DHT22;17142;47.990;7.846;2023-05-10T16:14:27;19.00;76.20
30336;DHT22;17142;47.990;7.846;2023-05-10T16:16:53;18.90;77.60
30336;DHT22;17142;47.990;7.846;2023-05-10T16:19:18;18.70;78.30
30336;DHT22;17142;47.990;7.846;2023-05-10T16:21:44;18.60;79.60
30336;DHT22;17142;47.990;7.846;2023-05-10T16:24:10;18.40;80.40
30336;DHT22;17142;47.990;7.846;2023-05-10T16:26:35;18.10;82.20
30336;DHT22;17142;47.990;7.846;2023-05-10T16:29:08;17.90;83.10
30336;DHT22;17142;47.990;7.846;2023-05-10T16:31:34;17.70;84.10
30336;DHT22;17142;47.990;7.846;2023-05-10T16:34:00;17.60;84.90
30336;DHT22;17142;47.990;7.846;2023-05-10T16:36:27;17.60;85.70
30336;DHT22;17142;47.990;7.846;2023-05-10T16:38:53;17.60;85.80
30336;DHT22;17142;47.990;7.846;2023-05-10T16:41:19;17.50;86.20
30336;DHT22;17142;47.990;7.846;2023-05-10T16:43:45;17.40;86.40
30336;DHT22;17142;47.990;7.846;2023-05-10T16:46:11;17.30;87.20
30336;DHT22;17142;47.990;7.846;2023-05-10T16:48:39;17.30;87.50
30336;DHT22;17142;47.990;7.846;2023-05-10T16:51:05;17.30;87.60
30336;DHT22;17142;47.990;7.846;2023-05-10T16:53:31;17.30;88.30
30336;DHT22;17142;47.990;7.846;2023-05-10T16:55:57;17.30;88.20
30336;DHT22;17142;47.990;7.846;2023-05-10T16:58:22;17.40;87.10
30336;DHT22;17142;47.990;7.846;2023-05-10T17:00:48;17.50;87.10
30336;DHT22;17142;47.990;7.846;2023-05-10T17:03:16;17.60;83.90
30336;DHT22;17142;47.990;7.846;2023-05-10T17:05:44;17.50;82.40
30336;DHT22;17142;47.990;7.846;2023-05-10T17:08:09;17.60;81.70
30336;DHT22;17142;47.990;7.846;2023-05-10T17:10:38;17.50;80.80
30336;DHT22;17142;47.990;7.846;2023-05-10T17:13:07;17.50;80.50
30336;DHT22;17142;47.990;7.846;2023-05-10T17:15:35;17.50;79.60
30336;DHT22;17142;47.990;7.846;2023-05-10T17:18:02;17.60;80.10
30336;DHT22;17142;47.990;7.846;2023-05-10T17:20:28;17.70;80.10
30336;DHT22;17142;47.990;7.846;2023-05-10T17:22:53;17.70;79.30
30336;DHT22;17142;47.990;7.846;2023-05-10T17:25:19;17.60;79.80
30336;DHT22;17142;47.990;7.846;2023-05-10T17:27:47;17.50;80.00
30336;DHT22;17142;47.990;7.846;2023-05-10T17:30:13;17.50;80.80
30336;DHT22;17142;47.990;7.846;2023-05-10T17:32:39;17.50;82.10
30336;DHT22;17142;47.990;7.846;2023-05-10T17:35:05;17.40;83.00
30336;DHT22;17142;47.990;7.846;2023-05-10T17:37:31;17.30;83.70
30336;DHT22;17142;47.990;7.846;2023-05-10T17:40:00;17.30;84.60
30336;DHT22;17142;47.990;7.846;2023-05-10T17:42:30;17.20;85.40
30336;DHT22;17142;47.990;7.846;2023-05-10T17:45:00;17.00;86.20
30336;DHT22;17142;47.990;7.846;2023-05-10T17:47:25;16.90;87.70
30336;DHT22;17142;47.990;7.846;2023-05-10T17:49:52;16.70;88.70
30336;DHT22;17142;47.990;7.846;2023-05-10T17:52:17;16.60;87.80
30336;DHT22;17142;47.990;7.846;2023-05-10T17:54:43;16.50;86.90
30336;DHT22;17142;47.990;7.846;2023-05-10T17:57:09;16.90;85.40
30336;DHT22;17142;47.990;7.846;2023-05-10T17:59:34;17.10;84.30
30336;DHT22;17142;47.990;7.846;2023-05-10T18:02:02;17.50;83.90
30336;DHT22;17142;47.990;7.846;2023-05-10T18:04:28;18.30;80.30
30336;DHT22;17142;47.990;7.846;2023-05-10T18:06:54;19.00;76.00
30336;DHT22;17142;47.990;7.846;2023-05-10T18:09:26;19.60;73.60
30336;DHT22;17142;47.990;7.846;2023-05-10T18:11:52;20.00;71.30
30336;DHT22;17142;47.990;7.846;2023-05-10T18:14:18;20.30;69.90
30336;DHT22;17142;47.990;7.846;2023-05-10T18:16:43;20.50;69.10
30336;DHT22;17142;47.990;7.846;2023-05-10T18:19:09;20.40;67.70
30336;DHT22;17142;47.990;7.846;2023-05-10T18:21:35;19.90;67.40
30336;DHT22;17142;47.990;7.846;2023-05-10T18:24:02;19.30;70.00
30336;DHT22;17142;47.990;7.846;2023-05-10T18:26:27;18.70;71.20
30336;DHT22;17142;47.990;7.846;2023-05-10T18:28:53;18.00;74.00
30336;DHT22;17142;47.990;7.846;2023-05-10T18:31:19;17.40;77.00
30336;DHT22;17142;47.990;7.846;2023-05-10T18:33:46;16.80;80.30
30336;DHT22;17142;47.990;7.846;2023-05-10T18:36:13;16.60;83.30
30336;DHT22;17142;47.990;7.846;2023-05-10T18:38:41;16.70;83.60
30336;DHT22;17142;47.990;7.846;2023-05-10T18:41:06;16.80;83.40
30336;DHT22;17142;47.990;7.846;2023-05-10T18:43:33;16.60;83.60
30336;DHT22;17142;47.990;7.846;2023-05-10T18:46:01;16.20;85.00
30336;DHT22;17142;47.990;7.846;2023-05-10T18:48:28;15.80;86.00
30336;DHT22;17142;47.990;7.846;2023-05-10T18:50:54;15.40;87.30
30336;DHT22;17142;47.990;7.846;2023-05-10T18:53:20;15.10;87.80
30336;DHT22;17142;47.990;7.846;2023-05-10T18:55:45;14.90;89.30
30336;DHT22;17142;47.990;7.846;2023-05-10T18:58:11;14.70;90.00
30336;DHT22;17142;47.990;7.846;2023-05-10T19:00:36;14.60;90.60
30336;DHT22;17142;47.990;7.846;2023-05-10T19:03:02;14.40;91.00
30336;DHT22;17142;47.990;7.846;2023-05-10T19:05:30;14.30;91.70
30336;DHT22;17142;47.990;7.846;2023-05-10T19:07:58;14.20;92.10
30336;DHT22;17142;47.990;7.846;2023-05-10T19:10:24;14.10;92.80
30336;DHT22;17142;47.990;7.846;2023-05-10T19:12:49;14.00;93.40
30336;DHT22;17142;47.990;7.846;2023-05-10T19:15:15;13.90;94.30
30336;DHT22;17142;47.990;7.846;2023-05-10T19:17:40;13.80;94.90
30336;DHT22;17142;47.990;7.846;2023-05-10T19:20:08;13.80;95.70
30336;DHT22;17142;47.990;7.846;2023-05-10T19:22:34;13.70;96.70
30336;DHT22;17142;47.990;7.846;2023-05-10T19:25:02;13.60;97.30
30336;DHT22;17142;47.990;7.846;2023-05-10T19:27:28;13.60;98.10
30336;DHT22;17142;47.990;7.846;2023-05-10T19:29:53;13.50;98.60
30336;DHT22;17142;47.990;7.846;2023-05-10T19:32:21;13.40;99.20
30336;DHT22;17142;47.990;7.846;2023-05-10T19:34:47;13.40;99.70
30336;DHT22;17142;47.990;7.846;2023-05-10T19:37:13;13.40;99.90
30336;DHT22;17142;47.990;7.846;2023-05-10T19:39:43;13.30;99.90
30336;DHT22;17142;47.990;7.846;2023-05-10T19:42:09;13.30;99.90
30336;DHT22;17142;47.990;7.846;2023-05-10T19:44:38;13.30;99.90
30336;DHT22;17142;47.990;7.846;2023-05-10T19:47:05;13.20;99.90
30336;DHT22;17142;47.990;7.846;2023-05-10T19:49:34;13.20;99.90
30336;DHT22;17142;47.990;7.846;2023-05-10T19:52:04;13.20;99.90
30336;DHT22;17142;47.990;7.846;2023-05-10T19:54:32;13.10;99.90
30336;DHT22;17142;47.990;7.846;2023-05-10T19:57:00;13.10;99.90
30336;DHT22;17142;47.990;7.846;2023-05-10T19:59:26;13.10;99.90
30336;DHT22;17142;47.990;7.846;2023-05-10T20:01:51;13.10;99.90
30336;DHT22;17142;47.990;7.846;2023-05-10T20:04:17;13.10;99.90
30336;DHT22;17142;47.990;7.846;2023-05-10T20:06:42;13.00;99.90
30336;DHT22;17142;47.990;7.846;2023-05-10T20:09:10;13.00;99.90
30336;DHT22;17142;47.990;7.846;2023-05-10T20:11:36;13.00;99.90
30336;DHT22;17142;47.990;7.846;2023-05-10T20:14:02;13.00;99.90
30336;DHT22;17142;47.990;7.846;2023-05-10T20:16:28;13.00;99.90
30336;DHT22;17142;47.990;7.846;2023-05-10T20:18:53;13.00;99.90
30336;DHT22;17142;47.990;7.846;2023-05-10T20:21:22;13.00;99.90
30336;DHT22;17142;47.990;7.846;2023-05-10T20:23:50;13.00;99.90
30336;DHT22;17142;47.990;7.846;2023-05-10T20:26:16;13.00;99.90
30336;DHT22;17142;47.990;7.846;2023-05-10T20:28:42;13.00;99.90
30336;DHT22;17142;47.990;7.846;2023-05-10T20:31:07;13.00;99.90
30336;DHT22;17142;47.990;7.846;2023-05-10T20:33:36;13.00;99.90
30336;DHT22;17142;47.990;7.846;2023-05-10T20:36:02;13.00;99.90
30336;DHT22;17142;47.990;7.846;2023-05-10T20:38:30;12.90;99.90
30336;DHT22;17142;47.990;7.846;2023-05-10T20:40:56;12.90;99.90
30336;DHT22;17142;47.990;7.846;2023-05-10T20:43:22;13.00;99.90
30336;DHT22;17142;47.990;7.846;2023-05-10T20:45:48;12.90;99.90
